createdAt,value
2023-02-19T00:00:34.900Z,11.40
2023-02-19T00:01:42.107Z,11.45
2023-02-19T00:02:46.936Z,10.93
2023-02-19T00:03:53.096Z,10.23
2023-02-19T00:04:59.867Z,11.57
2023-02-19T00:06:03.828Z,12.88
2023-02-19T00:07:08.648Z,14.60
2023-02-19T00:08:10.855Z,13.55
2023-02-19T00:09:17.176Z,13.00
2023-02-19T00:10:21.451Z,11.27
2023-02-19T00:11:32.260Z,12.07
2023-02-19T00:12:47.179Z,12.57
2023-02-19T00:13:51.352Z,13.35
2023-02-19T00:14:58.965Z,12.68
2023-02-19T00:16:06.338Z,15.85
2023-02-19T00:17:11.584Z,13.95
2023-02-19T00:18:13.648Z,15.65
2023-02-19T00:19:20.471Z,28.60
2023-02-19T00:20:22.697Z,13.02
2023-02-19T00:21:28.845Z,12.85
2023-02-19T00:22:30.909Z,13.70
2023-02-19T00:23:36.252Z,14.48
2023-02-19T00:24:38.373Z,14.52
2023-02-19T00:25:43.173Z,13.90
2023-02-19T00:26:49.478Z,14.20
2023-02-19T00:27:51.641Z,14.23
2023-02-19T00:28:57.983Z,14.30
2023-02-19T00:30:02.742Z,15.15
2023-02-19T00:31:15.551Z,16.27
2023-02-19T00:32:20.615Z,14.70
2023-02-19T00:33:22.798Z,13.98
2023-02-19T00:34:28.645Z,14.80
2023-02-19T00:35:30.760Z,14.73
2023-02-19T00:36:36.832Z,15.20
2023-02-19T00:37:43.683Z,16.23
2023-02-19T00:38:49.618Z,15.27
2023-02-19T00:39:52.021Z,15.30
2023-02-19T00:41:00.172Z,15.80
2023-02-19T00:42:02.484Z,17.65
2023-02-19T00:43:07.607Z,19.05
2023-02-19T00:44:12.291Z,17.75
2023-02-19T00:45:20.073Z,20.25
2023-02-19T00:46:24.278Z,15.73
2023-02-19T00:47:29.296Z,17.00
2023-02-19T00:48:31.399Z,17.08
2023-02-19T00:49:36.278Z,16.52
2023-02-19T00:50:39.152Z,16.92
2023-02-19T00:51:43.885Z,17.23
2023-02-19T00:52:46.020Z,18.90
2023-02-19T00:53:51.093Z,16.27
2023-02-19T00:54:53.436Z,16.38
2023-02-19T00:55:58.340Z,18.58
2023-02-19T00:57:00.477Z,17.13
2023-02-19T00:58:05.305Z,17.23
2023-02-19T00:59:07.665Z,25.05
2023-02-19T01:00:14.747Z,19.13
2023-02-19T01:01:20.356Z,18.00
2023-02-19T01:02:25.134Z,17.50
2023-02-19T01:03:27.404Z,18.23
2023-02-19T01:04:32.342Z,15.55
2023-02-19T01:05:34.401Z,19.60
2023-02-19T01:06:39.962Z,18.77
2023-02-19T01:07:42.049Z,16.75
2023-02-19T01:08:47.263Z,16.98
2023-02-19T01:09:49.367Z,17.05
2023-02-19T01:10:54.359Z,16.58
2023-02-19T01:11:59.172Z,16.50
2023-02-19T01:13:01.208Z,16.20
2023-02-19T01:14:07.671Z,17.42
2023-02-19T01:15:09.865Z,17.48
2023-02-19T01:16:17.173Z,18.52
2023-02-19T01:17:24.602Z,16.88
2023-02-19T01:18:26.665Z,15.23
2023-02-19T01:19:34.143Z,16.42
2023-02-19T01:20:42.854Z,13.63
2023-02-19T01:21:47.935Z,14.73
2023-02-19T01:22:49.942Z,15.32
2023-02-19T01:23:56.060Z,14.32
2023-02-19T01:24:58.480Z,16.52
2023-02-19T01:26:03.432Z,15.23
2023-02-19T01:27:05.632Z,16.55
2023-02-19T01:28:12.157Z,22.30
2023-02-19T01:29:16.964Z,15.68
2023-02-19T01:30:19.100Z,18.05
2023-02-19T01:31:26.832Z,14.55
2023-02-19T01:32:31.666Z,15.80
2023-02-19T01:33:36.906Z,15.50
2023-02-19T01:34:40.797Z,17.23
2023-02-19T01:35:45.708Z,15.35
2023-02-19T01:36:47.787Z,17.50
2023-02-19T01:37:52.766Z,15.80
2023-02-19T01:38:55.380Z,16.30
2023-02-19T01:40:02.595Z,19.67
2023-02-19T01:41:07.596Z,17.20
2023-02-19T01:42:19.708Z,17.05
2023-02-19T01:43:22.010Z,26.05
2023-02-19T01:45:00.126Z,15.18
2023-02-19T01:46:06.982Z,16.02
2023-02-19T01:47:09.421Z,19.33
2023-02-19T01:48:21.896Z,22.10
2023-02-19T01:49:27.767Z,16.02
2023-02-19T01:50:36.155Z,16.35
2023-02-19T01:51:48.424Z,14.15
2023-02-19T01:52:50.514Z,17.13
2023-02-19T01:53:58.282Z,12.95
2023-02-19T01:55:02.919Z,12.95
2023-02-19T01:56:10.575Z,17.17
2023-02-19T01:57:17.505Z,14.88
2023-02-19T01:58:22.622Z,14.90
2023-02-19T01:59:25.369Z,14.43
2023-02-19T02:00:30.752Z,13.10
2023-02-19T02:01:33.591Z,13.60
2023-02-19T02:02:38.702Z,12.35
2023-02-19T02:03:50.642Z,16.23
2023-02-19T02:04:52.832Z,14.35
2023-02-19T02:06:03.361Z,14.40
2023-02-19T02:07:27.392Z,14.10
2023-02-19T02:08:50.996Z,17.55
2023-02-19T02:10:08.584Z,11.57
2023-02-19T02:11:13.884Z,12.98
2023-02-19T02:12:16.039Z,18.45
2023-02-19T02:13:21.156Z,14.30
2023-02-19T02:14:28.222Z,12.93
2023-02-19T02:15:43.438Z,11.38
2023-02-19T02:16:55.003Z,12.35
2023-02-19T02:19:25.151Z,11.60
2023-02-19T02:20:54.377Z,11.93
2023-02-19T02:22:13.127Z,13.82
2023-02-19T02:23:24.290Z,12.88
2023-02-19T02:25:06.486Z,11.20
2023-02-19T02:26:30.800Z,12.32
2023-02-19T02:27:46.631Z,12.57
2023-02-19T02:29:17.522Z,10.85
2023-02-19T02:30:42.887Z,12.32
2023-02-19T02:31:52.620Z,11.43
2023-02-19T02:33:01.218Z,11.10
2023-02-19T02:34:12.989Z,13.23
2023-02-19T02:35:20.427Z,15.43
2023-02-19T02:36:30.290Z,14.23
2023-02-19T02:37:36.852Z,14.27
2023-02-19T02:38:45.763Z,14.48
2023-02-19T02:39:49.184Z,15.35
2023-02-19T02:40:55.412Z,15.35
2023-02-19T02:42:14.782Z,12.52
2023-02-19T02:43:19.510Z,12.55
2023-02-19T02:44:21.672Z,13.52
2023-02-19T02:45:36.582Z,14.77
2023-02-19T02:46:48.510Z,13.45
2023-02-19T02:47:53.328Z,10.60
2023-02-19T02:49:00.903Z,11.55
2023-02-19T02:50:06.246Z,13.13
2023-02-19T02:51:19.057Z,11.15
2023-02-19T02:52:36.756Z,13.07
2023-02-19T02:53:58.936Z,11.57
2023-02-19T02:55:03.875Z,11.00
2023-02-19T02:56:12.424Z,10.65
2023-02-19T02:57:17.186Z,12.32
2023-02-19T02:58:27.489Z,13.65
2023-02-19T02:59:36.227Z,12.57
2023-02-19T03:00:55.020Z,11.82
2023-02-19T03:02:13.649Z,11.35
2023-02-19T03:03:20.377Z,12.20
2023-02-19T03:04:36.161Z,12.85
2023-02-19T03:05:53.461Z,11.18
2023-02-19T03:07:00.140Z,11.90
2023-02-19T03:08:06.740Z,11.32
2023-02-19T03:09:21.585Z,11.52
2023-02-19T03:10:29.636Z,12.60
2023-02-19T03:11:48.096Z,11.45
2023-02-19T03:13:08.136Z,11.90
2023-02-19T03:14:29.689Z,13.45
2023-02-19T03:15:52.742Z,11.32
2023-02-19T03:17:17.962Z,10.85
2023-02-19T03:20:09.185Z,8.85
2023-02-19T03:23:48.458Z,8.60
2023-02-19T03:28:22.038Z,9.45
2023-02-19T03:30:35.097Z,8.55
2023-02-19T03:31:40.075Z,9.07
2023-02-19T03:32:51.606Z,10.30
2023-02-19T03:33:56.893Z,9.30
2023-02-19T03:35:06.368Z,10.60
2023-02-19T03:36:15.853Z,9.75
2023-02-19T03:37:28.050Z,8.65
2023-02-19T03:38:37.719Z,9.23
2023-02-19T03:39:47.237Z,9.88
2023-02-19T03:41:02.090Z,9.30
2023-02-19T03:42:17.647Z,9.13
2023-02-19T03:43:24.501Z,14.70
2023-02-19T03:44:39.996Z,11.43
2023-02-19T03:45:49.904Z,9.63
2023-02-19T03:46:59.172Z,9.27
2023-02-19T03:48:23.652Z,8.93
2023-02-19T03:49:35.588Z,8.90
2023-02-19T03:50:45.529Z,8.60
2023-02-19T03:51:56.714Z,10.15
2023-02-19T03:53:09.503Z,8.07
2023-02-19T03:54:20.012Z,9.20
2023-02-19T03:55:28.336Z,8.88
2023-02-19T03:56:39.116Z,8.57
2023-02-19T03:58:03.215Z,8.55
2023-02-19T04:00:38.993Z,9.23
2023-02-19T04:01:48.920Z,8.13
2023-02-19T04:02:56.936Z,7.80
2023-02-19T04:04:11.865Z,8.40
2023-02-19T04:05:17.169Z,9.38
2023-02-19T04:06:28.676Z,8.48
2023-02-19T04:07:35.205Z,7.85
2023-02-19T04:08:42.785Z,7.18
2023-02-19T04:09:49.163Z,7.60
2023-02-19T04:10:56.149Z,7.57
2023-02-19T04:12:02.389Z,6.72
2023-02-19T04:13:09.487Z,7.57
2023-02-19T04:14:19.392Z,6.70
2023-02-19T04:15:25.645Z,6.72
2023-02-19T04:16:32.835Z,6.70
2023-02-19T04:17:39.378Z,6.20
2023-02-19T04:18:47.999Z,7.43
2023-02-19T04:19:55.078Z,6.63
2023-02-19T04:21:03.877Z,5.05
2023-02-19T04:22:09.928Z,5.22
2023-02-19T04:23:15.268Z,5.22
2023-02-19T04:24:23.303Z,5.72
2023-02-19T04:25:30.570Z,5.63
2023-02-19T04:26:33.908Z,5.45
2023-02-19T04:27:39.872Z,5.40
2023-02-19T04:28:43.870Z,3.40
2023-02-19T04:29:49.381Z,3.50
2023-02-19T04:30:51.743Z,4.95
2023-02-19T04:31:56.452Z,3.65
2023-02-19T04:32:58.486Z,4.40
2023-02-19T04:34:03.994Z,4.78
2023-02-19T04:35:11.776Z,3.55
2023-02-19T04:36:16.454Z,4.50
2023-02-19T04:37:21.313Z,3.80
2023-02-19T04:38:23.435Z,4.22
2023-02-19T04:39:28.616Z,3.38
2023-02-19T04:40:33.740Z,3.30
2023-02-19T04:41:38.597Z,10.60
2023-02-19T04:42:40.717Z,3.00
2023-02-19T04:43:45.465Z,2.95
2023-02-19T04:44:47.792Z,2.65
2023-02-19T04:46:12.687Z,3.25
2023-02-19T04:47:17.974Z,3.85
2023-02-19T04:48:22.705Z,3.95
2023-02-19T04:49:31.941Z,5.13
2023-02-19T04:50:41.368Z,3.53
2023-02-19T04:51:43.509Z,3.20
2023-02-19T04:52:49.892Z,3.00
2023-02-19T04:53:52.071Z,3.42
2023-02-19T04:54:57.453Z,4.22
2023-02-19T04:56:07.577Z,3.45
2023-02-19T04:57:12.310Z,3.28
2023-02-19T04:58:14.855Z,3.50
2023-02-19T04:59:19.497Z,3.88
2023-02-19T05:00:21.847Z,3.90
2023-02-19T05:01:26.601Z,9.25
2023-02-19T05:02:28.731Z,4.35
2023-02-19T05:03:35.265Z,3.65
2023-02-19T05:04:37.427Z,6.55
2023-02-19T05:05:44.954Z,3.45
2023-02-19T05:06:46.969Z,2.67
2023-02-19T05:07:51.693Z,2.50
2023-02-19T05:08:53.914Z,2.50
2023-02-19T05:09:59.905Z,10.52
2023-02-19T05:11:03.364Z,2.60
2023-02-19T05:12:14.358Z,2.80
2023-02-19T05:13:16.548Z,4.43
2023-02-19T05:14:21.438Z,4.93
2023-02-19T05:15:23.567Z,2.28
2023-02-19T05:16:29.127Z,2.30
2023-02-19T05:17:33.701Z,2.10
2023-02-19T05:19:21.765Z,2.30
2023-02-19T05:21:36.896Z,2.80
2023-02-19T05:22:38.913Z,4.82
2023-02-19T05:23:43.965Z,2.63
2023-02-19T05:24:45.994Z,2.65
2023-02-19T05:25:51.719Z,4.65
2023-02-19T05:26:53.753Z,3.42
2023-02-19T05:28:17.201Z,2.88
2023-02-19T05:29:19.382Z,5.18
2023-02-19T05:30:47.417Z,3.00
2023-02-19T05:34:00.332Z,3.90
2023-02-19T05:35:02.591Z,5.35
2023-02-19T05:36:10.816Z,4.05
2023-02-19T05:37:16.486Z,3.38
2023-02-19T05:38:22.137Z,3.47
2023-02-19T05:39:24.269Z,5.53
2023-02-19T05:40:31.498Z,3.55
2023-02-19T05:41:33.942Z,4.50
2023-02-19T05:42:38.581Z,4.72
2023-02-19T05:43:42.123Z,3.70
2023-02-19T05:44:47.081Z,5.05
2023-02-19T05:45:49.128Z,6.25
2023-02-19T05:46:53.824Z,4.35
2023-02-19T05:48:04.077Z,3.80
2023-02-19T05:49:08.779Z,5.65
2023-02-19T05:50:10.933Z,5.35
2023-02-19T05:51:23.408Z,6.75
2023-02-19T05:52:28.120Z,5.70
2023-02-19T05:53:33.625Z,6.55
2023-02-19T05:54:35.795Z,5.38
2023-02-19T05:55:40.517Z,6.40
2023-02-19T05:56:42.761Z,4.10
2023-02-19T05:57:50.038Z,4.43
2023-02-19T05:58:52.815Z,4.65
2023-02-19T05:59:57.459Z,4.15
2023-02-19T06:00:59.561Z,3.15
2023-02-19T06:02:04.527Z,3.92
2023-02-19T06:03:06.633Z,3.55
2023-02-19T06:04:13.291Z,3.13
2023-02-19T06:05:18.277Z,3.28
2023-02-19T06:06:23.451Z,3.83
2023-02-19T06:07:28.421Z,4.00
2023-02-19T06:08:33.142Z,4.15
2023-02-19T06:09:35.527Z,13.60
2023-02-19T06:10:41.563Z,3.53
2023-02-19T06:11:44.272Z,3.75
2023-02-19T06:12:55.135Z,3.90
2023-02-19T06:13:57.639Z,4.30
2023-02-19T06:15:02.328Z,3.67
2023-02-19T06:16:04.949Z,5.15
2023-02-19T06:17:09.853Z,3.85
2023-02-19T06:18:17.045Z,4.53
2023-02-19T06:19:21.928Z,3.83
2023-02-19T06:20:26.054Z,4.82
2023-02-19T06:21:31.186Z,5.25
2023-02-19T06:22:37.026Z,5.22
2023-02-19T06:23:42.863Z,4.82
2023-02-19T06:24:44.890Z,3.60
2023-02-19T06:25:51.628Z,4.10
2023-02-19T06:26:56.406Z,3.92
2023-02-19T06:27:58.582Z,3.20
2023-02-19T06:29:03.660Z,3.53
2023-02-19T06:30:06.821Z,17.80
2023-02-19T06:31:15.229Z,4.10
2023-02-19T06:32:20.997Z,3.35
2023-02-19T06:33:23.109Z,7.80
2023-02-19T06:34:28.157Z,6.28
2023-02-19T06:35:30.122Z,7.10
2023-02-19T06:36:36.029Z,6.75
2023-02-19T06:37:40.679Z,5.68
2023-02-19T06:38:45.886Z,4.25
2023-02-19T06:39:47.969Z,6.95
2023-02-19T06:40:52.615Z,5.32
2023-02-19T06:41:55.893Z,3.63
2023-02-19T06:43:00.727Z,3.63
2023-02-19T06:44:17.412Z,4.78
2023-02-19T06:45:22.242Z,2.67
2023-02-19T06:46:27.113Z,4.90
2023-02-19T06:47:38.212Z,11.68
2023-02-19T06:48:41.661Z,3.28
2023-02-19T06:49:47.911Z,3.65
2023-02-19T06:51:08.028Z,3.55
2023-02-19T06:52:14.702Z,4.07
2023-02-19T06:53:24.646Z,15.77
2023-02-19T06:54:34.090Z,6.20
2023-02-19T06:55:36.827Z,4.85
2023-02-19T06:56:46.937Z,3.13
2023-02-19T06:57:52.881Z,4.20
2023-02-19T06:59:03.014Z,3.25
2023-02-19T07:02:46.577Z,3.25
2023-02-19T07:04:04.186Z,4.80
2023-02-19T07:05:10.433Z,2.80
2023-02-19T07:06:19.527Z,20.58
2023-02-19T07:07:27.574Z,3.25
2023-02-19T07:08:36.296Z,5.07
2023-02-19T07:09:42.438Z,5.90
2023-02-19T07:10:47.039Z,4.68
2023-02-19T07:11:54.951Z,3.55
2023-02-19T07:13:00.334Z,2.90
2023-02-19T07:14:18.529Z,3.95
2023-02-19T07:15:23.236Z,4.35
2023-02-19T07:16:28.370Z,4.80
2023-02-19T07:17:30.639Z,5.35
2023-02-19T07:18:35.692Z,7.63
2023-02-19T07:19:37.794Z,8.02
2023-02-19T07:20:42.885Z,9.15
2023-02-19T07:21:45.301Z,3.45
2023-02-19T07:22:51.726Z,3.88
2023-02-19T07:24:00.748Z,3.63
2023-02-19T07:25:07.966Z,3.17
2023-02-19T07:26:11.846Z,6.38
2023-02-19T07:27:20.655Z,2.65
2023-02-19T07:28:23.081Z,3.42
2023-02-19T07:29:30.338Z,5.95
2023-02-19T07:30:41.666Z,5.60
2023-02-19T07:31:49.833Z,3.53
2023-02-19T07:32:54.360Z,3.72
2023-02-19T07:33:59.697Z,8.05
2023-02-19T07:35:02.954Z,6.75
2023-02-19T07:36:12.804Z,3.50
2023-02-19T07:37:15.019Z,5.65
2023-02-19T07:38:26.518Z,5.53
2023-02-19T07:39:34.956Z,10.05
2023-02-19T07:40:37.745Z,7.28
2023-02-19T07:41:42.995Z,8.00
2023-02-19T07:42:44.992Z,4.57
2023-02-19T07:43:49.682Z,3.75
2023-02-19T07:44:51.807Z,3.30
2023-02-19T07:45:56.885Z,5.00
2023-02-19T07:47:01.644Z,4.05
2023-02-19T07:48:04.358Z,3.72
2023-02-19T07:49:12.002Z,5.32
2023-02-19T07:50:14.171Z,4.93
2023-02-19T07:51:22.081Z,4.18
2023-02-19T07:52:24.276Z,7.65
2023-02-19T07:53:30.328Z,5.05
2023-02-19T07:54:39.860Z,6.93
2023-02-19T07:55:42.184Z,6.07
2023-02-19T07:56:48.151Z,3.85
2023-02-19T07:57:50.448Z,4.18
2023-02-19T07:58:55.334Z,3.78
2023-02-19T07:59:57.656Z,3.83
2023-02-19T08:01:18.742Z,4.00
2023-02-19T08:02:36.929Z,7.95
2023-02-19T08:03:43.434Z,6.45
2023-02-19T08:05:00.929Z,5.80
2023-02-19T08:06:03.654Z,3.88
2023-02-19T08:07:23.824Z,4.20
2023-02-19T08:08:25.974Z,4.80
2023-02-19T08:09:31.988Z,7.63
2023-02-19T08:10:52.238Z,9.75
2023-02-19T08:12:12.700Z,10.90
2023-02-19T08:13:19.783Z,7.40
2023-02-19T08:14:28.031Z,5.45
2023-02-19T08:15:30.388Z,7.63
2023-02-19T08:16:42.870Z,7.32
2023-02-19T08:17:45.545Z,5.00
2023-02-19T08:18:50.987Z,6.35
2023-02-19T08:19:53.164Z,4.00
2023-02-19T08:20:58.931Z,6.45
2023-02-19T08:22:01.213Z,3.65
2023-02-19T08:23:05.959Z,6.20
2023-02-19T08:24:08.386Z,4.88
2023-02-19T08:25:21.440Z,8.13
2023-02-19T08:26:32.913Z,4.40
2023-02-19T08:27:41.495Z,9.55
2023-02-19T08:28:51.740Z,7.70
2023-02-19T08:29:58.671Z,6.93
2023-02-19T08:31:18.721Z,4.32
2023-02-19T08:32:25.172Z,4.95
2023-02-19T08:33:30.584Z,8.98
2023-02-19T08:34:36.302Z,6.57
2023-02-19T08:35:39.185Z,9.32
2023-02-19T08:36:44.673Z,6.78
2023-02-19T08:37:47.142Z,9.55
2023-02-19T08:38:52.334Z,9.98
2023-02-19T08:39:54.828Z,13.95
2023-02-19T08:40:59.737Z,5.65
2023-02-19T08:42:08.069Z,4.28
2023-02-19T08:43:12.064Z,4.28
2023-02-19T08:44:16.886Z,5.35
2023-02-19T08:45:20.016Z,4.82
2023-02-19T08:46:25.642Z,10.15
2023-02-19T08:47:27.886Z,6.03
2023-02-19T08:48:32.967Z,6.53
2023-02-19T08:49:35.186Z,7.10
2023-02-19T08:50:41.042Z,8.65
2023-02-19T08:51:43.183Z,14.13
2023-02-19T08:52:48.245Z,5.82
2023-02-19T08:53:53.279Z,4.00
2023-02-19T08:54:55.514Z,4.00
2023-02-19T08:56:00.550Z,4.35
2023-02-19T08:57:07.169Z,4.65
2023-02-19T08:58:13.899Z,11.30
2023-02-19T08:59:20.484Z,6.65
2023-02-19T09:00:23.095Z,5.65
2023-02-19T09:01:27.731Z,6.55
2023-02-19T09:02:30.291Z,7.18
2023-02-19T09:03:34.966Z,10.27
2023-02-19T09:04:38.387Z,11.88
2023-02-19T09:05:43.463Z,10.93
2023-02-19T09:06:45.600Z,9.90
2023-02-19T09:07:50.381Z,6.90
2023-02-19T09:08:55.237Z,5.47
2023-02-19T09:10:00.147Z,14.23
2023-02-19T09:11:07.620Z,9.07
2023-02-19T09:12:13.388Z,8.07
2023-02-19T09:13:18.269Z,4.68
2023-02-19T09:14:20.362Z,7.15
2023-02-19T09:15:25.426Z,8.65
2023-02-19T09:16:30.144Z,8.05
2023-02-19T09:17:32.551Z,9.88
2023-02-19T09:18:37.420Z,6.75
2023-02-19T09:19:39.508Z,9.80
2023-02-19T09:20:44.210Z,9.57
2023-02-19T09:21:49.081Z,8.32
2023-02-19T09:22:59.107Z,7.88
2023-02-19T09:24:01.321Z,7.55
2023-02-19T09:25:06.147Z,8.30
2023-02-19T09:26:10.190Z,5.43
2023-02-19T09:27:22.927Z,10.25
2023-02-19T09:28:24.981Z,7.10
2023-02-19T09:29:31.199Z,7.78
2023-02-19T09:30:33.367Z,11.35
2023-02-19T09:31:38.141Z,10.93
2023-02-19T09:32:40.291Z,10.70
2023-02-19T09:33:46.137Z,12.43
2023-02-19T09:34:48.192Z,8.75
2023-02-19T09:35:52.825Z,7.95
2023-02-19T09:36:55.622Z,7.72
2023-02-19T09:38:03.516Z,9.35
2023-02-19T09:39:12.578Z,12.82
2023-02-19T09:40:21.774Z,8.93
2023-02-19T09:41:29.320Z,8.43
2023-02-19T09:42:37.215Z,5.97
2023-02-19T09:43:39.243Z,5.10
2023-02-19T09:44:48.043Z,6.10
2023-02-19T09:46:10.604Z,2.03
2023-02-19T09:47:19.488Z,7.13
2023-02-19T09:48:24.157Z,5.00
2023-02-19T09:49:34.770Z,3.80
2023-02-19T09:50:42.075Z,11.52
2023-02-19T09:51:52.063Z,10.43
2023-02-19T09:53:02.793Z,4.63
2023-02-19T09:54:10.709Z,5.03
2023-02-19T09:55:19.693Z,8.23
2023-02-19T09:56:22.531Z,12.38
2023-02-19T09:57:29.003Z,4.00
2023-02-19T09:58:39.019Z,6.15
2023-02-19T09:59:47.806Z,9.75
2023-02-19T10:00:53.929Z,8.15
2023-02-19T10:02:07.556Z,4.18
2023-02-19T10:03:15.106Z,11.88
2023-02-19T10:04:19.937Z,4.28
2023-02-19T10:05:23.659Z,5.13
2023-02-19T10:06:30.600Z,6.75
2023-02-19T10:07:38.868Z,8.55
2023-02-19T10:08:44.822Z,7.45
2023-02-19T10:09:56.783Z,9.02
2023-02-19T10:11:00.325Z,13.32
2023-02-19T10:12:05.604Z,6.93
2023-02-19T10:13:20.692Z,5.40
2023-02-19T10:14:35.592Z,4.68
2023-02-19T10:15:43.234Z,6.75
2023-02-19T10:16:51.249Z,7.70
2023-02-19T10:17:53.509Z,4.00
2023-02-19T10:18:59.339Z,5.90
2023-02-19T10:20:03.543Z,5.78
2023-02-19T10:21:09.474Z,5.82
2023-02-19T10:22:16.086Z,4.05
2023-02-19T10:23:18.478Z,6.10
2023-02-19T10:24:28.151Z,6.05
2023-02-19T10:25:49.018Z,9.75
2023-02-19T10:27:02.062Z,12.27
2023-02-19T10:28:13.386Z,8.48
2023-02-19T10:29:23.879Z,4.60
2023-02-19T10:30:34.761Z,6.18
2023-02-19T10:31:42.904Z,9.50
2023-02-19T10:32:59.850Z,8.52
2023-02-19T10:34:07.763Z,4.68
2023-02-19T10:35:12.300Z,3.35
2023-02-19T10:36:31.296Z,5.70
2023-02-19T10:37:34.682Z,5.85
2023-02-19T10:38:43.870Z,6.30
2023-02-19T10:39:48.063Z,5.82
2023-02-19T10:40:59.306Z,11.15
2023-02-19T10:42:01.380Z,5.15
2023-02-19T10:43:08.154Z,6.65
2023-02-19T10:44:21.628Z,6.50
2023-02-19T10:45:31.981Z,5.25
2023-02-19T10:46:42.289Z,4.43
2023-02-19T10:47:49.407Z,6.97
2023-02-19T10:48:57.647Z,8.40
2023-02-19T10:50:04.017Z,4.75
2023-02-19T10:51:12.698Z,4.00
2023-02-19T10:52:20.536Z,3.88
2023-02-19T10:53:26.345Z,4.05
2023-02-19T10:54:32.293Z,3.95
2023-02-19T10:55:40.916Z,3.05
2023-02-19T10:56:46.059Z,7.57
2023-02-19T10:57:53.629Z,7.82
2023-02-19T10:59:00.445Z,4.63
2023-02-19T11:00:23.062Z,4.55
2023-02-19T11:01:27.193Z,4.72
2023-02-19T11:02:35.661Z,4.40
2023-02-19T11:03:39.905Z,6.00
2023-02-19T11:04:45.079Z,6.95
2023-02-19T11:06:04.326Z,5.03
2023-02-19T11:07:13.803Z,4.07
2023-02-19T11:08:22.379Z,3.92
2023-02-19T11:09:35.244Z,4.45
2023-02-19T11:10:42.481Z,5.40
2023-02-19T11:11:53.930Z,6.25
2023-02-19T11:13:02.980Z,5.65
2023-02-19T11:14:16.695Z,2.65
2023-02-19T11:15:22.810Z,3.38
2023-02-19T11:16:40.713Z,3.80
2023-02-19T11:17:49.653Z,7.45
2023-02-19T11:18:59.692Z,8.80
2023-02-19T11:20:10.465Z,8.18
2023-02-19T11:21:28.954Z,4.22
2023-02-19T11:22:35.734Z,3.78
2023-02-19T11:23:44.450Z,4.22
2023-02-19T11:24:57.814Z,15.98
2023-02-19T11:26:11.552Z,1.67
2023-02-19T11:27:22.284Z,4.13
2023-02-19T11:28:33.995Z,5.30
2023-02-19T11:30:43.118Z,6.13
2023-02-19T11:31:48.078Z,5.60
2023-02-19T11:32:53.325Z,16.60
2023-02-19T11:34:02.745Z,4.80
2023-02-19T11:35:17.872Z,4.35
2023-02-19T11:36:34.835Z,6.03
2023-02-19T11:37:39.770Z,4.65
2023-02-19T11:38:45.001Z,11.05
2023-02-19T11:39:52.042Z,8.18
2023-02-19T11:41:04.486Z,16.38
2023-02-19T11:42:23.951Z,8.55
2023-02-19T11:43:42.600Z,7.15
2023-02-19T11:44:56.341Z,11.90
2023-02-19T11:46:07.246Z,5.18
2023-02-19T11:47:41.014Z,12.90
2023-02-19T11:49:07.592Z,14.27
2023-02-19T11:50:22.836Z,3.53
2023-02-19T11:51:40.756Z,6.45
2023-02-19T11:52:53.865Z,6.30
2023-02-19T11:54:09.647Z,2.95
2023-02-19T11:55:24.306Z,3.33
2023-02-19T11:56:34.171Z,4.40
2023-02-19T11:57:44.644Z,8.65
2023-02-19T11:59:01.070Z,7.03
2023-02-19T12:00:21.374Z,2.95
2023-02-19T12:01:37.821Z,3.70
2023-02-19T12:03:18.286Z,3.90
2023-02-19T12:05:07.217Z,5.75
2023-02-19T12:06:26.206Z,8.10
2023-02-19T12:08:13.473Z,5.45
2023-02-19T12:09:38.421Z,6.38
2023-02-19T12:11:00.283Z,4.07
2023-02-19T12:12:24.783Z,6.55
2023-02-19T12:13:38.909Z,4.00
2023-02-19T12:15:05.844Z,6.13
2023-02-19T12:16:24.136Z,4.43
2023-02-19T12:17:43.691Z,5.88
2023-02-19T12:19:06.296Z,8.45
2023-02-19T12:20:25.622Z,3.65
2023-02-19T12:21:42.438Z,7.75
2023-02-19T12:22:56.717Z,7.82
2023-02-19T12:24:37.662Z,6.97
2023-02-19T12:25:55.224Z,3.85
2023-02-19T12:27:16.710Z,6.45
2023-02-19T12:28:46.789Z,3.90
2023-02-19T12:30:11.295Z,5.75
2023-02-19T12:31:41.581Z,4.30
2023-02-19T12:33:01.764Z,11.18
2023-02-19T12:34:38.060Z,5.30
2023-02-19T12:36:04.633Z,6.47
2023-02-19T12:37:18.823Z,3.47
2023-02-19T12:38:26.110Z,5.53
2023-02-19T12:39:39.398Z,3.90
2023-02-19T12:41:00.794Z,9.00
2023-02-19T12:42:11.784Z,4.47
2023-02-19T12:43:20.437Z,5.00
2023-02-19T12:44:36.238Z,5.13
2023-02-19T12:45:42.982Z,12.68
2023-02-19T12:46:52.172Z,4.80
2023-02-19T12:48:01.829Z,4.28
2023-02-19T12:49:14.338Z,8.80
2023-02-19T12:50:21.637Z,4.30
2023-02-19T12:51:34.158Z,4.43
2023-02-19T12:52:41.056Z,2.75
2023-02-19T12:53:50.874Z,5.13
2023-02-19T12:54:58.120Z,5.63
2023-02-19T12:56:03.982Z,4.10
2023-02-19T12:57:14.379Z,7.47
2023-02-19T12:58:30.298Z,2.83
2023-02-19T12:59:38.337Z,6.07
2023-02-19T13:00:45.176Z,3.33
2023-02-19T13:01:55.597Z,6.88
2023-02-19T13:03:04.399Z,7.20
2023-02-19T13:04:22.345Z,4.38
2023-02-19T13:05:35.710Z,4.75
2023-02-19T13:06:48.331Z,4.60
2023-02-19T13:08:05.177Z,5.72
2023-02-19T13:09:13.338Z,5.00
2023-02-19T13:10:28.038Z,5.00
2023-02-19T13:11:36.350Z,2.85
2023-02-19T13:12:45.189Z,5.43
2023-02-19T13:13:58.049Z,6.35
2023-02-19T13:15:06.481Z,6.97
2023-02-19T13:16:15.097Z,5.07
2023-02-19T13:17:26.949Z,7.78
2023-02-19T13:18:35.759Z,3.88
2023-02-19T13:19:42.266Z,12.45
2023-02-19T13:20:49.022Z,11.20
2023-02-19T13:22:18.774Z,6.80
2023-02-19T13:23:40.566Z,3.00
2023-02-19T13:24:48.732Z,6.88
2023-02-19T13:26:09.768Z,8.90
2023-02-19T13:27:41.816Z,6.13
2023-02-19T13:29:10.930Z,4.90
2023-02-19T13:30:35.425Z,3.65
2023-02-19T13:32:02.046Z,2.55
2023-02-19T13:33:25.742Z,3.75
2023-02-19T13:34:47.951Z,6.93
2023-02-19T13:36:08.118Z,5.78
2023-02-19T13:37:15.704Z,2.35
2023-02-19T13:38:18.011Z,3.42
2023-02-19T13:39:31.338Z,3.00
2023-02-19T13:40:38.284Z,4.88
2023-02-19T13:41:52.902Z,3.47
2023-02-19T13:42:57.237Z,12.63
2023-02-19T13:44:05.582Z,9.15
2023-02-19T13:45:08.193Z,3.78
2023-02-19T13:46:15.759Z,4.70
2023-02-19T13:47:51.727Z,4.13
2023-02-19T13:49:41.250Z,5.55
2023-02-19T13:50:48.864Z,4.25
2023-02-19T13:51:51.913Z,7.93
2023-02-19T13:53:00.435Z,8.18
2023-02-19T13:54:14.838Z,6.00
2023-02-19T13:55:50.960Z,5.03
2023-02-19T13:57:28.617Z,6.97
2023-02-19T13:58:53.052Z,7.90
2023-02-19T13:59:59.004Z,7.88
2023-02-19T14:01:02.528Z,8.20
2023-02-19T14:02:28.962Z,5.57
2023-02-19T14:03:45.358Z,3.45
2023-02-19T14:04:55.581Z,6.80
2023-02-19T14:06:00.315Z,7.22
2023-02-19T14:07:40.714Z,3.63
2023-02-19T14:09:00.528Z,3.63
2023-02-19T14:10:03.006Z,2.78
2023-02-19T14:11:08.612Z,3.08
2023-02-19T14:12:20.614Z,4.00
2023-02-19T14:13:58.276Z,3.83
2023-02-19T14:15:35.565Z,4.63
2023-02-19T14:16:55.022Z,5.32
2023-02-19T14:17:59.778Z,6.00
2023-02-19T14:19:01.912Z,5.30
2023-02-19T14:20:42.046Z,4.80
2023-02-19T14:21:44.115Z,5.53
2023-02-19T14:23:01.704Z,9.45
2023-02-19T14:24:14.097Z,5.43
2023-02-19T14:25:28.421Z,5.10
2023-02-19T14:26:37.576Z,5.85
2023-02-19T14:27:39.683Z,5.35
2023-02-19T14:28:48.382Z,5.15
2023-02-19T14:29:50.697Z,6.03
2023-02-19T14:30:58.346Z,4.18
2023-02-19T14:32:05.333Z,6.57
2023-02-19T14:33:15.067Z,4.50
2023-02-19T14:34:22.926Z,4.55
2023-02-19T14:35:31.060Z,6.18
2023-02-19T14:36:49.009Z,6.65
2023-02-19T14:37:54.951Z,6.82
2023-02-19T14:39:02.666Z,6.95
2023-02-19T14:40:17.528Z,6.30
2023-02-19T14:41:24.454Z,5.65
2023-02-19T14:42:33.617Z,5.05
2023-02-19T14:43:39.966Z,6.50
2023-02-19T14:44:48.704Z,5.28
2023-02-19T14:45:57.765Z,8.90
2023-02-19T14:47:07.232Z,7.45
2023-02-19T14:48:17.189Z,7.20
2023-02-19T14:49:27.806Z,5.03
2023-02-19T14:50:31.619Z,5.85
2023-02-19T14:51:39.286Z,4.32
2023-02-19T14:52:46.757Z,5.72
2023-02-19T14:53:52.981Z,8.85
2023-02-19T14:54:58.469Z,9.65
2023-02-19T14:56:05.903Z,9.10
2023-02-19T14:57:16.169Z,5.10
2023-02-19T14:58:25.740Z,7.85
2023-02-19T14:59:32.793Z,7.18
2023-02-19T15:00:37.426Z,8.63
2023-02-19T15:01:43.248Z,6.47
2023-02-19T15:02:47.916Z,6.70
2023-02-19T15:03:50.393Z,10.85
2023-02-19T15:04:56.112Z,9.80
2023-02-19T15:06:03.484Z,10.00
2023-02-19T15:07:12.887Z,7.38
2023-02-19T15:08:23.595Z,7.78
2023-02-19T15:09:33.901Z,7.37
2023-02-19T15:10:37.300Z,5.35
2023-02-19T15:11:46.905Z,6.38
2023-02-19T15:12:53.328Z,8.70
2023-02-19T15:14:00.481Z,9.82
2023-02-19T15:15:08.929Z,9.10
2023-02-19T15:16:13.726Z,5.15
2023-02-19T15:17:27.075Z,5.95
2023-02-19T15:18:37.954Z,5.88
2023-02-19T15:19:40.368Z,12.35
2023-02-19T15:20:46.376Z,6.55
2023-02-19T15:21:51.773Z,9.05
2023-02-19T15:22:55.209Z,9.93
2023-02-19T15:24:02.746Z,10.48
2023-02-19T15:25:06.369Z,5.55
2023-02-19T15:26:23.803Z,9.65
2023-02-19T15:27:29.151Z,6.20
2023-02-19T15:28:36.445Z,4.63